Time;durP1;ratioP1;P1;durP2;ratioP2;P2;SDS_P1;SDS_P2;PMS_P1;PMS_P2;Temp;Humidity;BMP_temperature;BMP_pressure;BME280_temperature;BME280_humidity;BME280_pressure;Samples;Min_cycle;Max_cycle;Signal;HPM_P1;HPM_P2
2021/06/06 11:13:38;;;;;;;5.13;3.95;;;;;;;25.53;42.98;96945.44;127621;1093;24168;-90
2021/06/06 11:16:22;;;;;;;4.93;2.70;;;;;;;25.65;41.82;96958.79;127113;1093;113176;-92
2021/06/06 11:18:57;;;;;;;5.08;4.10;;;;;;;25.00;40.04;96953.53;127406;1093;22783;-91
2021/06/06 11:21:39;;;;;;;4.35;3.88;;;;;;;24.44;42.01;96951.42;127166;1093;112345;-90
2021/06/06 11:24:44;;;;;;;5.68;3.73;;;;;;;24.64;42.05;96950.25;127654;1093;27604;-91
2021/06/06 11:27:31;;;;;;;5.28;3.90;;;;;;;24.52;39.95;96958.55;127613;1093;114023;-87
2021/06/06 11:30:10;;;;;;;5.25;3.63;;;;;;;23.43;41.27;96955.92;127748;1092;22956;-87
2021/06/06 11:32:56;;;;;;;4.08;3.10;;;;;;;22.86;41.79;96960.00;127472;1093;113481;-89
2021/06/06 11:35:41;;;;;;;5.18;3.70;;;;;;;22.77;42.61;96951.24;127627;1092;49020;-92
2021/06/06 11:38:31;;;;;;;4.90;3.23;;;;;;;22.94;42.81;96945.50;127622;1092;96593;-88
2021/06/06 11:41:13;;;;;;;4.83;3.20;;;;;;;23.18;43.62;96947.23;128020;1093;22803;-89
2021/06/06 11:43:49;;;;;;;4.40;3.35;;;;;;;23.36;43.31;96943.00;127584;1092;27106;-88
2021/06/06 11:46:28;;;;;;;4.73;3.60;;;;;;;23.38;43.17;96951.58;127944;1092;113384;-87
2021/06/06 11:49:17;;;;;;;5.98;3.90;;;;;;;23.55;44.00;96934.16;128168;1093;23438;-88
2021/06/06 11:51:50;;;;;;;6.15;3.60;;;;;;;24.04;44.42;96930.91;127941;1092;114601;-93
2021/06/06 11:54:29;;;;;;;4.80;3.73;;;;;;;24.39;43.86;96932.76;128340;1092;22880;-92
2021/06/06 11:57:06;;;;;;;5.55;3.80;;;;;;;24.23;42.49;96930.91;128176;1093;114175;-91
2021/06/06 11:59:45;;;;;;;8.43;3.73;;;;;;;23.88;42.47;96924.78;128077;1092;31460;-92
2021/06/06 12:02:21;;;;;;;5.40;4.20;;;;;;;23.78;43.23;96925.34;129174;1092;25428;-90
2021/06/06 12:04:52;;;;;;;8.45;4.13;;;;;;;23.62;42.85;96928.91;128207;1093;113582;-94
2021/06/06 12:07:27;;;;;;;6.00;3.70;;;;;;;23.48;44.17;96922.38;128189;1093;32738;-92
2021/06/06 12:10:01;;;;;;;4.28;3.88;;;;;;;23.45;44.19;96933.91;128141;1092;113316;-92
2021/06/06 12:12:36;;;;;;;5.63;3.77;;;;;;;23.49;44.27;96929.36;128272;1092;31465;-91
2021/06/06 12:15:23;;;;;;;5.45;4.00;;;;;;;23.53;44.13;96914.78;128228;1093;113663;-91
2021/06/06 12:18:05;;;;;;;5.48;4.13;;;;;;;23.88;44.69;96920.16;127416;1093;26613;-92
2021/06/06 12:20:48;;;;;;;8.05;4.00;;;;;;;24.28;44.63;96911.63;127654;1092;46068;-91
2021/06/06 12:23:27;;;;;;;4.93;3.85;;;;;;;24.56;44.13;96918.73;125224;1093;2522983;-91
2021/06/06 12:26:07;;;;;;;5.43;3.70;;;;;;;24.82;44.36;96902.51;128089;1093;45573;-91
2021/06/06 12:28:44;;;;;;;6.65;4.45;;;;;;;24.63;43.11;96918.83;127815;1093;113342;-91
2021/06/06 12:31:30;;;;;;;6.50;4.30;;;;;;;24.56;43.73;96916.02;127506;1092;25167;-90
2021/06/06 12:34:13;;;;;;;5.40;4.40;;;;;;;24.37;43.00;96921.50;127675;1093;114114;-90
2021/06/06 12:36:46;;;;;;;6.00;3.93;;;;;;;24.20;44.25;96911.84;128059;1092;22816;-91
2021/06/06 12:39:21;;;;;;;7.35;4.30;;;;;;;24.03;42.85;96915.80;127600;1092;113759;-91
2021/06/06 12:41:55;;;;;;;6.28;4.50;;;;;;;23.79;43.68;96910.67;127594;1092;35765;-89
2021/06/06 12:44:31;;;;;;;4.63;3.88;;;;;;;24.01;45.07;96909.95;127666;1093;23471;-92
2021/06/06 12:47:05;;;;;;;5.28;3.60;;;;;;;24.30;44.82;96902.39;127734;1092;113677;-92
2021/06/06 12:49:40;;;;;;;5.30;4.20;;;;;;;24.44;45.20;96899.92;128127;1092;25289;-92
2021/06/06 12:52:31;;;;;;;4.13;3.78;;;;;;;24.55;44.55;96906.31;127909;1093;113570;-92
2021/06/06 12:55:16;;;;;;;4.90;3.67;;;;;;;24.63;43.60;96907.98;127994;1092;29206;-92
2021/06/06 12:57:53;;;;;;;5.43;3.85;;;;;;;24.10;42.25;96905.11;127706;1093;113728;-92
2021/06/06 13:00:30;;;;;;;4.30;3.77;;;;;;;23.85;44.40;96917.38;127916;1092;23380;-92
2021/06/06 13:03:03;;;;;;;4.78;3.50;;;;;;;24.05;43.81;96918.92;127342;1093;113511;-91
2021/06/06 13:05:38;;;;;;;3.95;3.55;;;;;;;24.19;43.04;96913.77;127480;1093;33385;-90
2021/06/06 13:08:24;;;;;;;5.10;3.50;;;;;;;24.28;43.32;96908.92;127468;1092;206813;-92
2021/06/06 13:10:58;;;;;;;4.13;3.27;;;;;;;24.44;43.40;96910.77;127679;1093;113532;-91
2021/06/06 13:13:37;;;;;;;5.33;3.23;;;;;;;24.41;42.56;96906.08;127581;1093;24689;-92
2021/06/06 13:16:18;;;;;;;6.88;3.30;;;;;;;24.47;42.80;96907.33;128058;1093;113320;-91
2021/06/06 13:19:00;;;;;;;5.10;3.28;;;;;;;24.18;40.63;96906.02;128139;1091;47458;-92
2021/06/06 13:21:34;;;;;;;5.43;3.55;;;;;;;23.84;41.03;96907.70;128048;1092;113426;-91
2021/06/06 13:24:15;;;;;;;6.05;3.53;;;;;;;23.93;41.16;96905.56;128165;1092;25579;-91
2021/06/06 13:26:53;;;;;;;4.75;3.50;;;;;;;24.01;41.81;96896.41;128099;1092;23126;-91
2021/06/06 13:29:35;;;;;;;4.53;3.90;;;;;;;24.12;42.17;96897.41;127995;1092;113734;-91
2021/06/06 13:32:18;;;;;;;4.80;3.53;;;;;;;24.22;42.02;96894.11;127940;1093;23698;-91
2021/06/06 13:34:51;;;;;;;4.53;3.20;;;;;;;24.15;42.05;96896.68;127387;1093;113737;-92
2021/06/06 13:37:24;;;;;;;4.80;3.30;;;;;;;24.23;41.48;96898.39;128089;1092;23574;-89
2021/06/06 13:39:55;;;;;;;5.05;3.10;;;;;;;24.35;41.87;96900.18;127857;1093;113334;-91
2021/06/06 13:42:28;;;;;;;3.35;2.75;;;;;;;24.51;41.59;96905.48;127640;1093;32804;-91
2021/06/06 13:44:58;;;;;;;4.60;3.30;;;;;;;24.57;41.50;96901.31;127954;1093;83300;-90
2021/06/06 15:24:14;;;;;;;4.68;2.75;;;;;;;23.37;41.10;96878.88;127671;1092;23441;-87
2021/06/06 15:26:46;;;;;;;5.03;3.20;;;;;;;23.60;41.69;96887.88;127563;1093;22810;-89
2021/06/06 15:29:19;;;;;;;5.73;2.70;;;;;;;23.73;40.60;96879.63;127355;1093;113689;-89
2021/06/06 15:31:52;;;;;;;3.65;2.88;;;;;;;23.72;41.25;96876.13;127825;1092;22832;-89
2021/06/06 15:34:26;;;;;;;6.25;3.18;;;;;;;23.90;40.38;96873.76;127177;1093;113623;-90
2021/06/06 15:36:57;;;;;;;5.43;3.15;;;;;;;23.99;41.04;96877.81;127277;1093;22869;-89
2021/06/06 15:39:28;;;;;;;7.33;3.10;;;;;;;24.06;40.47;96879.86;127321;1093;54180;-87
2021/06/06 15:42:00;;;;;;;5.05;3.13;;;;;;;24.10;40.98;96877.24;127306;1093;113297;-86
2021/06/06 15:44:31;;;;;;;4.08;2.80;;;;;;;24.17;40.68;96874.64;127383;1093;24389;-87
2021/06/06 15:47:03;;;;;;;3.25;2.30;;;;;;;24.23;40.38;96875.93;127265;1093;113840;-87
2021/06/06 15:49:34;;;;;;;4.58;2.88;;;;;;;23.94;40.08;96877.34;127377;1092;25858;-87
2021/06/06 15:52:11;;;;;;;3.13;2.80;;;;;;;23.86;40.01;96870.21;127313;1093;113503;-86
2021/06/06 15:54:43;;;;;;;6.20;2.83;;;;;;;23.97;40.81;96866.56;127384;1093;29849;-87
2021/06/06 15:57:14;;;;;;;3.45;2.75;;;;;;;24.07;40.14;96867.10;127342;1093;25315;-87
2021/06/06 15:59:45;;;;;;;3.28;2.60;;;;;;;24.01;40.03;96863.13;127227;1093;113243;-91
2021/06/06 16:02:21;;;;;;;5.03;3.10;;;;;;;24.04;40.16;96863.19;127356;1093;54786;-88
2021/06/06 16:04:53;;;;;;;4.73;2.70;;;;;;;24.08;40.69;96872.19;127243;1093;113518;-84
2021/06/06 16:07:24;;;;;;;3.93;2.43;;;;;;;24.17;40.94;96861.09;127389;1093;29459;-87
2021/06/06 16:09:55;;;;;;;4.38;2.95;;;;;;;24.28;40.63;96857.44;127407;1093;27674;-88
2021/06/06 16:12:26;;;;;;;4.28;3.15;;;;;;;24.39;40.97;96856.88;127638;1093;112351;-89
2021/06/06 16:14:57;;;;;;;3.80;2.65;;;;;;;24.36;40.56;96863.02;127441;1093;25219;-88
2021/06/06 16:17:29;;;;;;;4.20;2.48;;;;;;;24.34;40.24;96865.28;127303;1093;113381;-86
2021/06/06 16:19:59;;;;;;;2.90;2.35;;;;;;;24.31;40.23;96871.44;127374;1093;27407;-86
2021/06/06 16:22:31;;;;;;;4.98;2.98;;;;;;;24.30;40.13;96869.88;127236;1093;113527;-87
2021/06/06 16:25:02;;;;;;;4.65;2.93;;;;;;;24.32;40.58;96873.78;127346;1093;24386;-87
2021/06/06 16:27:34;;;;;;;6.83;2.73;;;;;;;24.33;40.71;96869.14;127422;1093;23601;-88
2021/06/06 16:30:08;;;;;;;4.60;2.98;;;;;;;24.44;40.40;96865.47;127208;1093;114232;-87
2021/06/06 16:32:40;;;;;;;3.40;2.65;;;;;;;24.77;40.24;96867.58;127388;1093;22853;-87
2021/06/06 16:35:14;;;;;;;4.30;2.63;;;;;;;25.32;40.74;96864.48;127318;1093;113420;-87
2021/06/06 16:37:45;;;;;;;3.53;2.57;;;;;;;26.01;39.76;96868.44;127833;1093;28286;-88
2021/06/06 16:40:19;;;;;;;3.43;2.80;;;;;;;26.50;39.23;96877.49;127545;1093;113544;-89
2021/06/06 16:42:50;;;;;;;5.40;2.53;;;;;;;27.01;39.04;96871.28;127975;1093;22930;-90
2021/06/06 16:45:26;;;;;;;3.65;2.68;;;;;;;27.40;38.72;96860.63;127895;1093;23036;-84
2021/06/06 16:47:58;;;;;;;4.45;2.90;;;;;;;27.49;37.46;96863.79;127480;1093;113613;-87
2021/06/06 16:50:29;;;;;;;4.38;2.40;;;;;;;27.59;37.82;96863.06;127284;1093;35382;-93
2021/06/06 16:53:06;;;;;;;3.10;2.48;;;;;;;27.70;37.50;96863.11;127660;1092;113819;-89
2021/06/06 16:55:39;;;;;;;3.65;2.80;;;;;;;27.81;37.17;96863.94;127807;1092;23412;-89
2021/06/06 16:58:12;;;;;;;3.78;2.65;;;;;;;27.75;37.15;96858.09;127625;1092;113671;-89
2021/06/06 17:00:45;;;;;;;4.18;2.78;;;;;;;27.74;36.83;96855.75;127375;1092;22794;-89
2021/06/06 17:03:18;;;;;;;2.93;2.55;;;;;;;27.74;37.06;96869.38;127798;1093;27113;-89
2021/06/06 17:05:49;;;;;;;4.73;2.85;;;;;;;27.77;36.17;96857.70;127777;1092;113401;-89
2021/06/06 17:08:23;;;;;;;2.70;2.50;;;;;;;27.70;36.54;96860.39;127891;1093;22890;-89
2021/06/06 17:10:55;;;;;;;4.45;2.68;;;;;;;27.64;36.70;96865.44;127415;1093;113358;-88
2021/06/06 17:13:29;;;;;;;3.15;2.70;;;;;;;27.46;36.38;96861.84;127357;1093;29291;-88
2021/06/06 17:16:02;;;;;;;3.00;2.70;;;;;;;27.22;36.04;96863.27;127853;1093;22886;-89
2021/06/06 17:18:33;;;;;;;2.93;2.60;;;;;;;27.12;36.18;96859.31;127762;1092;113173;-89
2021/06/06 17:21:07;;;;;;;2.68;2.38;;;;;;;26.96;36.73;96860.73;127762;1093;53794;-89
2021/06/06 17:23:42;;;;;;;6.80;2.88;;;;;;;26.93;37.30;96857.61;127790;1093;113371;-89
2021/06/06 17:26:15;;;;;;;4.28;2.90;;;;;;;26.98;37.33;96863.85;127572;1093;29706;-88
2021/06/06 17:28:47;;;;;;;3.20;2.53;;;;;;;26.90;37.42;96863.04;127828;1090;114612;-90
2021/06/06 17:31:18;;;;;;;3.00;2.25;;;;;;;26.86;36.79;96868.44;127998;1092;23152;-91
2021/06/06 17:33:50;;;;;;;3.55;2.60;;;;;;;26.69;36.59;96858.21;128023;1093;24682;-89
2021/06/06 17:36:21;;;;;;;3.18;2.35;;;;;;;26.17;36.32;96864.70;127784;1093;113430;-88
2021/06/06 17:38:55;;;;;;;6.10;2.40;;;;;;;25.31;36.99;96863.70;127973;1093;28035;-90
2021/06/06 17:41:27;;;;;;;2.48;2.25;;;;;;;24.57;38.11;96860.65;127908;1093;113365;-89
2021/06/06 17:44:01;;;;;;;2.85;2.43;;;;;;;23.98;38.74;96862.72;127974;1091;29291;-88
2021/06/06 17:46:32;;;;;;;5.68;2.60;;;;;;;23.54;39.71;96854.09;127796;1093;113507;-89
2021/06/06 17:49:04;;;;;;;11.13;3.23;;;;;;;23.12;40.16;96864.02;127976;1093;52520;-90
2021/06/06 19:08:02;;;;;;;6.08;2.88;;;;;;;17.14;53.96;96920.35;127670;1092;29606;-80
2021/06/06 19:10:34;;;;;;;5.53;2.50;;;;;;;17.26;53.90;96917.06;127385;1093;113816;-86
2021/06/06 19:13:09;;;;;;;4.40;2.73;;;;;;;17.20;53.91;96921.01;127552;1093;22836;-85
2021/06/06 19:15:42;;;;;;;3.70;2.70;;;;;;;17.18;54.36;96923.22;127588;1093;26433;-86
2021/06/06 19:18:15;;;;;;;4.38;2.88;;;;;;;17.05;54.25;96926.81;127665;1093;113282;-86
2021/06/06 19:20:48;;;;;;;3.13;2.35;;;;;;;16.89;54.84;96931.78;127645;1092;24141;-84
2021/06/06 19:23:23;;;;;;;4.43;2.73;;;;;;;16.74;55.13;96940.23;127628;1093;113367;-85
2021/06/06 19:25:55;;;;;;;3.25;2.28;;;;;;;16.66;55.54;96943.66;127822;1093;22919;-86
2021/06/06 19:28:30;;;;;;;4.90;3.13;;;;;;;16.58;55.83;96937.95;127632;1093;114517;-85
2021/06/06 19:31:03;;;;;;;6.68;3.48;;;;;;;16.55;55.90;96943.92;127781;1093;22809;-85
2021/06/06 19:33:36;;;;;;;5.55;3.48;;;;;;;16.51;56.46;96948.32;127582;1093;22810;-86
2021/06/06 19:36:09;;;;;;;5.58;3.18;;;;;;;16.44;56.82;96947.16;127596;1093;114045;-87
2021/06/06 19:38:40;;;;;;;3.73;2.80;;;;;;;16.41;56.92;96948.58;127617;1093;22835;-87
2021/06/06 19:41:12;;;;;;;4.58;2.83;;;;;;;16.44;57.28;96952.52;127649;1093;114192;-85
2021/06/06 19:43:46;;;;;;;5.13;3.45;;;;;;;16.59;57.64;96957.47;127713;1093;22823;-86
2021/06/06 19:46:21;;;;;;;3.73;3.10;;;;;;;16.48;57.20;96953.50;127538;1093;113518;-86
2021/06/06 19:48:55;;;;;;;5.38;2.85;;;;;;;16.27;57.41;96958.56;127901;1093;25799;-85
2021/06/06 19:51:28;;;;;;;4.68;2.73;;;;;;;16.28;57.77;96952.91;127683;1093;23558;-85
2021/06/06 19:54:00;;;;;;;4.80;2.78;;;;;;;16.35;57.82;96957.05;127468;1093;114563;-86
2021/06/06 19:56:33;;;;;;;3.85;3.00;;;;;;;16.29;57.83;96959.84;127965;1093;39176;-85
2021/06/06 19:59:06;;;;;;;4.13;2.73;;;;;;;16.25;58.18;96955.41;127913;1093;113358;-86
2021/06/06 20:01:39;;;;;;;4.38;3.00;;;;;;;16.14;58.30;96962.10;127928;1093;51807;-85
2021/06/06 20:04:11;;;;;;;3.93;2.70;;;;;;;16.06;58.40;96968.20;127877;1092;113916;-85
2021/06/06 20:06:44;;;;;;;3.80;2.70;;;;;;;15.97;58.99;96971.59;127954;1092;22835;-86
2021/06/06 20:09:16;;;;;;;4.55;3.10;;;;;;;15.91;59.19;96969.35;128007;1093;54626;-86
2021/06/06 20:11:51;;;;;;;2.88;2.58;;;;;;;15.90;59.47;96971.20;127901;1092;114343;-86
2021/06/06 20:14:27;;;;;;;4.60;2.70;;;;;;;15.89;59.55;96974.19;127946;1091;46601;-85
2021/06/06 20:16:59;;;;;;;3.78;2.58;;;;;;;15.84;59.72;96971.64;127922;1093;113663;-87
2021/06/06 20:19:30;;;;;;;6.07;2.60;;;;;;;15.81;60.08;96974.92;127960;1093;65298;-87
2021/06/06 20:22:06;;;;;;;4.48;3.20;;;;;;;15.79;60.33;96974.45;127991;1093;57129;-87
2021/06/06 20:24:39;;;;;;;3.00;2.58;;;;;;;15.80;60.24;96979.48;127915;1091;113154;-88
2021/06/06 20:27:11;;;;;;;3.05;2.75;;;;;;;15.82;60.36;96968.48;127982;1093;22831;-86
2021/06/06 20:29:43;;;;;;;4.03;2.83;;;;;;;15.89;60.23;96972.30;127762;1092;113309;-85
2021/06/06 20:32:14;;;;;;;4.15;3.13;;;;;;;15.95;60.14;96970.32;128455;1093;22782;-86
2021/06/06 20:34:48;;;;;;;5.85;3.13;;;;;;;15.97;60.10;96971.59;128500;1092;23433;-85
2021/06/06 20:37:22;;;;;;;4.30;3.25;;;;;;;16.01;60.17;96969.88;127568;1092;22790;-85
2021/06/06 20:39:55;;;;;;;3.63;2.60;;;;;;;15.92;60.12;96969.05;127650;1092;114705;-87
2021/06/06 20:42:32;;;;;;;3.83;2.60;;;;;;;15.72;60.40;96969.50;127958;1093;50820;-86
2021/06/06 20:45:08;;;;;;;5.18;2.80;;;;;;;15.53;60.57;96969.63;127734;1093;114682;-86
2021/06/06 20:47:42;;;;;;;6.00;2.93;;;;;;;15.51;61.28;96961.13;127871;1093;22811;-86
2021/06/06 20:50:14;;;;;;;6.10;3.23;;;;;;;15.43;61.15;96972.52;127578;1092;114196;-85
2021/06/06 20:52:46;;;;;;;3.85;2.85;;;;;;;15.39;61.58;96960.85;127464;1093;114677;-88
2021/06/06 20:55:20;;;;;;;3.73;3.03;;;;;;;15.43;61.45;96961.83;127879;1093;22817;-87
2021/06/06 20:57:53;;;;;;;5.08;3.18;;;;;;;15.45;61.70;96965.77;127695;1093;114832;-88
2021/06/06 21:00:29;;;;;;;4.20;3.08;;;;;;;15.45;61.67;96957.76;127652;1093;114241;-86
2021/06/06 21:03:00;;;;;;;3.80;2.83;;;;;;;15.25;62.11;96962.76;127740;1093;22937;-88
2021/06/06 21:05:32;;;;;;;4.40;2.85;;;;;;;15.19;62.37;96969.28;128008;1093;24048;-88
2021/06/06 21:08:05;;;;;;;5.78;2.90;;;;;;;15.19;62.57;96955.92;128004;1093;114105;-87
2021/06/06 21:10:36;;;;;;;4.03;2.85;;;;;;;15.15;62.93;96961.87;127934;1092;22813;-87
2021/06/06 21:13:08;;;;;;;5.40;3.08;;;;;;;15.23;62.93;96959.59;127816;1093;114381;-87
2021/06/06 21:15:39;;;;;;;4.33;3.13;;;;;;;15.32;62.54;96960.45;127901;1093;26264;-88
2021/06/06 21:18:10;;;;;;;5.13;2.58;;;;;;;15.41;62.45;96964.02;127865;1093;26146;-87
2021/06/06 21:20:43;;;;;;;5.93;3.18;;;;;;;15.42;62.58;96966.38;127765;1093;113466;-89
2021/06/06 21:23:19;;;;;;;3.55;2.63;;;;;;;15.36;62.54;96962.25;127897;1093;22835;-86
2021/06/06 21:25:54;;;;;;;4.58;3.30;;;;;;;15.28;62.63;96970.17;127861;1093;113312;-85
2021/06/06 21:28:30;;;;;;;3.00;2.70;;;;;;;15.23;62.97;96973.74;127979;1093;22790;-86
2021/06/06 21:31:03;;;;;;;4.50;2.80;;;;;;;15.27;62.92;96964.03;127895;1092;114273;-86
2021/06/06 21:33:35;;;;;;;4.53;2.90;;;;;;;15.36;62.88;96962.25;127917;1093;22786;-87
2021/06/06 21:36:10;;;;;;;4.40;3.20;;;;;;;15.39;62.65;96960.85;127916;1093;22783;-87
2021/06/06 21:38:43;;;;;;;3.75;2.93;;;;;;;15.38;62.66;96961.95;127843;1093;113260;-87
2021/06/06 21:41:17;;;;;;;6.65;3.35;;;;;;;15.38;62.70;96968.08;127979;1093;22780;-87
2021/06/06 21:43:47;;;;;;;4.63;3.38;;;;;;;15.38;62.87;96962.73;127888;1093;114032;-87
2021/06/06 21:46:22;;;;;;;4.90;2.43;;;;;;;15.34;62.92;96961.77;128019;1093;22783;-87
2021/06/06 21:48:54;;;;;;;5.23;3.23;;;;;;;15.35;62.81;96960.67;127816;1089;113526;-87
2021/06/06 21:51:27;;;;;;;5.53;3.13;;;;;;;15.31;62.83;96954.33;127903;1090;22854;-87
2021/06/06 21:53:59;;;;;;;3.23;2.83;;;;;;;15.31;63.04;96956.20;127990;1089;22783;-87
2021/06/06 21:56:29;;;;;;;5.83;3.58;;;;;;;15.28;62.81;96949.59;127842;1090;113661;-86
2021/06/06 21:59:00;;;;;;;6.10;3.25;;;;;;;15.28;62.87;96954.93;127939;1090;22777;-87
2021/06/06 22:01:41;;;;;;;4.08;3.28;;;;;;;15.23;62.95;96957.72;127821;1090;113694;-84
2021/06/06 22:04:13;;;;;;;3.78;3.10;;;;;;;15.17;63.18;96953.55;127979;1090;22783;-85
2021/06/06 22:06:45;;;;;;;5.35;3.60;;;;;;;15.16;63.27;96962.66;127879;1090;113943;-85
2021/06/06 22:09:19;;;;;;;5.53;3.45;;;;;;;15.18;63.20;96965.03;127940;1090;22794;-86
2021/06/06 22:11:52;;;;;;;4.33;3.20;;;;;;;15.27;63.24;96968.59;127820;1093;22800;-85
2021/06/06 22:14:25;;;;;;;6.03;3.70;;;;;;;15.37;63.23;96963.83;127795;1090;113369;-86
2021/06/06 22:16:57;;;;;;;5.35;3.43;;;;;;;15.46;63.36;96961.22;127909;1090;22777;-85
2021/06/06 22:20:03;;;;;;;5.18;3.28;;;;;;;15.53;63.08;96963.50;127844;1090;113869;-87
2021/06/06 22:23:08;;;;;;;6.03;4.25;;;;;;;15.61;62.85;96955.56;127917;1090;23291;-85
2021/06/06 22:26:14;;;;;;;7.03;4.20;;;;;;;15.55;62.78;96959.42;127854;1090;114202;-87
2021/06/06 22:29:19;;;;;;;7.30;3.70;;;;;;;15.63;62.85;96966.77;127889;1093;23503;-86
2021/06/06 22:32:25;;;;;;;5.38;3.73;;;;;;;15.69;63.09;96970.11;128048;1093;113667;-84
2021/06/06 22:35:31;;;;;;;5.28;3.53;;;;;;;15.76;62.71;96962.45;128324;1089;22803;-86
2021/06/06 22:38:36;;;;;;;5.95;3.28;;;;;;;15.87;62.66;96976.38;127931;1093;113486;-87
2021/06/06 22:41:42;;;;;;;6.30;3.70;;;;;;;15.91;62.55;96980.05;128025;1090;22841;-86
2021/06/06 22:44:47;;;;;;;5.75;4.00;;;;;;;15.88;62.35;96984.09;129279;1093;113904;-86
2021/06/06 22:47:53;;;;;;;7.33;3.90;;;;;;;15.83;62.58;96981.55;128065;1090;22835;-87
2021/06/06 22:50:58;;;;;;;6.90;4.40;;;;;;;15.83;62.48;96976.20;127820;1090;113359;-87
2021/06/06 22:54:04;;;;;;;5.43;3.73;;;;;;;15.77;62.38;96977.42;127884;1091;24401;-87
2021/06/06 22:57:09;;;;;;;4.78;3.83;;;;;;;15.77;62.77;96977.42;127794;1093;113642;-88
2021/06/06 23:00:15;;;;;;;6.20;4.08;;;;;;;15.69;62.77;96983.47;127864;1090;27991;-89
2021/06/06 23:03:21;;;;;;;5.90;3.70;;;;;;;15.62;62.49;96981.23;127849;1090;113361;-87
2021/06/06 23:06:27;;;;;;;5.87;3.67;;;;;;;15.58;62.86;96985.55;127924;1091;25193;-88
2021/06/06 23:09:32;;;;;;;5.28;3.85;;;;;;;15.60;62.81;96980.71;127753;1090;114134;-88
2021/06/06 23:12:38;;;;;;;5.93;4.15;;;;;;;15.64;62.83;96989.73;127900;1090;22791;-88
2021/06/06 23:15:06;;;;;;;4.25;3.60;;;;;;;15.61;62.67;96989.52;127814;1090;113527;-88
2021/06/06 23:17:37;;;;;;;5.03;3.85;;;;;;;15.54;62.94;96984.57;127897;1090;22916;-88
2021/06/06 23:20:09;;;;;;;5.93;4.30;;;;;;;15.45;63.10;96986.36;127792;1090;113389;-90
2021/06/06 23:22:41;;;;;;;6.60;3.98;;;;;;;15.34;63.54;96980.46;127852;1091;22783;-88
2021/06/06 23:25:15;;;;;;;5.48;4.23;;;;;;;15.31;63.82;96986.38;127759;1090;113861;-90
2021/06/06 23:27:46;;;;;;;6.35;4.03;;;;;;;15.33;63.93;96992.21;127951;1093;22937;-87
2021/06/06 23:30:21;;;;;;;7.75;3.98;;;;;;;15.39;63.89;96987.57;127979;1090;22809;-88
2021/06/06 23:32:52;;;;;;;5.63;3.83;;;;;;;15.42;63.62;96982.41;127788;1090;113491;-86
2021/06/06 23:35:23;;;;;;;8.05;4.38;;;;;;;15.44;63.73;96985.57;127908;1091;25260;-87
2021/06/06 23:37:54;;;;;;;4.15;3.40;;;;;;;15.49;63.61;96981.23;127750;1090;113902;-88
2021/06/06 23:40:25;;;;;;;5.30;3.57;;;;;;;15.53;63.70;96988.34;127938;1090;22789;-87
2021/06/06 23:42:56;;;;;;;4.98;3.75;;;;;;;15.58;63.34;96992.77;127760;1092;113841;-90
2021/06/06 23:45:27;;;;;;;7.68;3.70;;;;;;;15.63;63.39;96995.38;127880;1090;24532;-88
2021/06/06 23:47:58;;;;;;;6.48;3.98;;;;;;;15.67;63.43;96997.14;127862;1089;22812;-89
2021/06/06 23:50:28;;;;;;;5.90;3.93;;;;;;;15.70;63.16;96993.07;127769;1091;114130;-90
2021/06/06 23:52:59;;;;;;;8.43;3.65;;;;;;;15.73;63.33;96997.81;127933;1090;22758;-88
2021/06/06 23:55:31;;;;;;;5.83;4.03;;;;;;;15.68;63.13;96998.72;127768;1090;114396;-87
2021/06/06 23:58:03;;;;;;;4.63;3.58;;;;;;;15.65;63.36;97006.55;127908;1090;23116;-87
